createdAt,value
2023-04-15T00:00:42.185Z,97118.31
2023-04-15T00:01:45.073Z,97115.41
2023-04-15T00:02:48.464Z,97119.16
2023-04-15T00:03:52.722Z,97120.47
2023-04-15T00:04:55.602Z,97118.84
2023-04-15T00:05:58.018Z,97109.72
2023-04-15T00:07:00.829Z,97117.88
2023-04-15T00:08:02.857Z,97111.34
2023-04-15T00:09:05.951Z,97118.66
2023-04-15T00:10:09.553Z,97114.63
2023-04-15T00:11:12.538Z,97121.94
2023-04-15T00:12:14.533Z,97131.75
2023-04-15T00:13:17.442Z,97131.25
2023-04-15T00:14:19.352Z,97127.19
2023-04-15T00:15:22.387Z,97121.31
2023-04-15T00:16:24.213Z,97122.28
2023-04-15T00:17:27.004Z,97122.28
2023-04-15T00:18:29.596Z,97128.31
2023-04-15T00:19:33.300Z,97126.69
2023-04-15T00:20:35.409Z,97124.91
2023-04-15T00:21:38.245Z,97123.44
2023-04-15T00:22:40.054Z,97133.03
2023-04-15T00:23:42.882Z,97124.59
2023-04-15T00:24:45.498Z,97127.50
2023-04-15T00:25:49.711Z,97125.88
2023-04-15T00:26:51.582Z,97124.44
2023-04-15T00:27:54.386Z,97135.00
2023-04-15T00:28:56.219Z,97135.34
2023-04-15T00:29:59.048Z,97134.69
2023-04-15T00:31:00.942Z,97135.84
2023-04-15T00:32:03.805Z,97143.16
2023-04-15T00:33:05.652Z,97142.50
2023-04-15T00:34:08.578Z,97147.22
2023-04-15T00:35:11.434Z,97141.69
2023-04-15T00:36:13.615Z,97143.81
2023-04-15T00:37:16.549Z,97144.31
2023-04-15T00:38:18.580Z,97142.00
2023-04-15T00:39:21.674Z,97150.00
2023-04-15T00:40:24.883Z,97152.91
2023-04-15T00:41:29.025Z,97142.66
2023-04-15T00:42:31.286Z,97149.00
2023-04-15T00:43:34.137Z,97152.56
2023-04-15T00:44:35.960Z,97148.53
2023-04-15T00:45:39.033Z,97147.72
2023-04-15T00:46:41.678Z,97146.06
2023-04-15T00:47:45.138Z,97144.44
2023-04-15T00:48:47.288Z,97153.88
2023-04-15T00:49:50.187Z,97151.25
2023-04-15T00:50:53.716Z,97156.47
2023-04-15T00:51:57.074Z,97153.06
2023-04-15T00:52:59.263Z,97154.84
2023-04-15T00:54:02.049Z,97154.03
2023-04-15T00:55:04.783Z,97153.88
2023-04-15T00:56:08.988Z,97156.63
2023-04-15T00:57:12.278Z,97151.44
2023-04-15T00:58:15.543Z,97149.63
2023-04-15T00:59:17.887Z,97148.81
2023-04-15T01:00:21.717Z,97145.56
2023-04-15T01:01:25.492Z,97144.91
2023-04-15T01:02:28.951Z,97141.50
2023-04-15T01:03:31.297Z,97144.09
2023-04-15T01:04:34.298Z,97144.25
2023-04-15T01:05:37.242Z,97152.06
2023-04-15T01:06:40.060Z,97152.88
2023-04-15T01:07:41.923Z,97157.28
2023-04-15T01:08:45.382Z,97159.72
2023-04-15T01:09:47.983Z,97149.47
2023-04-15T01:10:50.760Z,97147.19
2023-04-15T01:11:53.800Z,97153.38
2023-04-15T01:12:57.970Z,97150.59
2023-04-15T01:14:00.972Z,97150.75
2023-04-15T01:15:05.799Z,97148.97
2023-04-15T01:16:08.963Z,97147.34
2023-04-15T01:17:12.550Z,97149.78
2023-04-15T01:18:15.722Z,97147.97
2023-04-15T01:19:18.764Z,97145.25
2023-04-15T01:20:22.126Z,97156.31
2023-04-15T01:21:25.096Z,97152.72
2023-04-15T01:22:28.047Z,97148.19
2023-04-15T01:23:30.926Z,97142.97
2023-04-15T01:24:33.259Z,97150.78
2023-04-15T01:25:38.270Z,97149.81
2023-04-15T01:26:42.336Z,97152.25
2023-04-15T01:27:45.545Z,97159.41
2023-04-15T01:28:48.941Z,97153.69
2023-04-15T01:29:50.727Z,97149.94
2023-04-15T01:31:07.479Z,97155.63
2023-04-15T01:32:12.153Z,97158.72
2023-04-15T01:33:15.237Z,97157.09
2023-04-15T01:34:17.500Z,97155.47
2023-04-15T01:35:21.197Z,97157.38
2023-04-15T01:36:22.998Z,97158.53
2023-04-15T01:37:29.979Z,97161.63
2023-04-15T01:38:32.444Z,97156.72
2023-04-15T01:39:35.408Z,97162.41
2023-04-15T01:40:38.703Z,97157.69
2023-04-15T01:41:42.337Z,97155.38
2023-04-15T01:42:44.193Z,97157.47
2023-04-15T01:43:47.551Z,97155.03
2023-04-15T01:44:49.353Z,97160.41
2023-04-15T01:45:52.182Z,97157.81
2023-04-15T01:46:54.468Z,97163.00
2023-04-15T01:47:57.348Z,97166.59
2023-04-15T01:48:59.527Z,97155.38
2023-04-15T01:50:02.740Z,97158.91
2023-04-15T01:51:04.695Z,97164.94
2023-04-15T01:52:08.006Z,97158.09
2023-04-15T01:53:09.932Z,97163.47
2023-04-15T01:54:12.772Z,97162.97
2023-04-15T01:55:14.710Z,97163.41
2023-04-15T01:56:19.504Z,97172.38
2023-04-15T01:57:21.391Z,97173.47
2023-04-15T01:58:24.255Z,97173.13
2023-04-15T01:59:27.772Z,97181.56
2023-04-15T02:00:32.527Z,97178.94
2023-04-15T02:01:34.759Z,97188.31
2023-04-15T02:02:38.083Z,97193.16
2023-04-15T02:03:40.250Z,97188.53
2023-04-15T02:04:43.566Z,97189.78
2023-04-15T02:05:45.953Z,97185.56
2023-04-15T02:06:48.805Z,97191.75
2023-04-15T02:07:50.666Z,97189.31
2023-04-15T02:08:53.786Z,97190.25
2023-04-15T02:09:55.627Z,97196.41
2023-04-15T02:10:58.535Z,97193.97
2023-04-15T02:12:01.883Z,97196.59
2023-04-15T02:13:05.010Z,97189.75
2023-04-15T02:14:06.873Z,97188.13
2023-04-15T02:15:11.621Z,97192.66
2023-04-15T02:16:17.647Z,97195.41
2023-04-15T02:17:20.742Z,97197.19
2023-04-15T02:18:22.712Z,97192.00
2023-04-15T02:19:26.026Z,97194.72
2023-04-15T02:20:28.008Z,97190.38
2023-04-15T02:21:35.360Z,97188.06
2023-04-15T02:22:37.294Z,97195.84
2023-04-15T02:23:40.060Z,97188.06
2023-04-15T02:24:42.343Z,97195.19
2023-04-15T02:25:53.872Z,97185.75
2023-04-15T02:26:56.465Z,97191.25
2023-04-15T02:28:00.642Z,97196.59
2023-04-15T02:29:02.994Z,97198.53
2023-04-15T02:30:07.222Z,97198.69
2023-04-15T02:31:11.049Z,97203.91
2023-04-15T02:32:13.375Z,97210.72
2023-04-15T02:33:16.495Z,97217.88
2023-04-15T02:34:18.596Z,97212.94
2023-04-15T02:35:21.475Z,97211.44
2023-04-15T02:36:24.390Z,97216.81
2023-04-15T02:37:28.651Z,97209.16
2023-04-15T02:38:32.010Z,97205.75
2023-04-15T02:39:34.399Z,97207.66
2023-04-15T02:40:37.309Z,97209.63
2023-04-15T02:41:39.169Z,97215.09
2023-04-15T02:42:42.665Z,97211.84
2023-04-15T02:43:48.628Z,97213.91
2023-04-15T02:44:51.997Z,97216.00
2023-04-15T02:45:53.906Z,97211.09
2023-04-15T02:46:58.696Z,97217.44
2023-04-15T02:48:03.920Z,97209.91
2023-04-15T02:49:06.678Z,97218.97
2023-04-15T02:50:12.492Z,97211.59
2023-04-15T02:51:18.337Z,97216.56
2023-04-15T02:52:20.669Z,97216.03
2023-04-15T02:53:23.882Z,97205.28
2023-04-15T02:54:28.704Z,97212.69
2023-04-15T02:55:31.493Z,97215.88
2023-04-15T02:56:33.433Z,97218.09
2023-04-15T02:57:37.316Z,97228.41
2023-04-15T02:58:41.940Z,97215.97
2023-04-15T02:59:46.245Z,97230.22
2023-04-15T03:00:50.912Z,97223.94
2023-04-15T03:01:53.801Z,97221.13
2023-04-15T03:02:59.235Z,97227.00
2023-04-15T03:04:02.345Z,97229.50
2023-04-15T03:05:05.896Z,97229.38
2023-04-15T03:06:09.595Z,97235.97
2023-04-15T03:07:12.066Z,97241.31
2023-04-15T03:08:15.826Z,97235.44
2023-04-15T03:09:17.980Z,97236.53
2023-04-15T03:10:21.543Z,97240.91
2023-04-15T03:11:23.330Z,97233.94
2023-04-15T03:12:26.822Z,97241.44
2023-04-15T03:13:31.389Z,97236.13
2023-04-15T03:14:36.673Z,97241.03
2023-04-15T03:15:40.997Z,97238.28
2023-04-15T03:16:42.814Z,97239.91
2023-04-15T03:17:45.623Z,97244.13
2023-04-15T03:18:47.830Z,97245.91
2023-04-15T03:19:51.410Z,97231.97
2023-04-15T03:20:53.246Z,97238.69
2023-04-15T03:21:56.309Z,97233.34
2023-04-15T03:22:58.327Z,97238.53
2023-04-15T03:24:01.752Z,97234.31
2023-04-15T03:25:04.903Z,97237.56
2023-04-15T03:26:09.244Z,97242.75
2023-04-15T03:27:11.773Z,97237.16
2023-04-15T03:28:14.628Z,97242.66
2023-04-15T03:29:16.566Z,97247.31
2023-04-15T03:30:19.730Z,97245.13
2023-04-15T03:31:23.308Z,97242.13
2023-04-15T03:32:27.144Z,97251.13
2023-04-15T03:33:29.988Z,97247.06
2023-04-15T03:34:32.468Z,97255.25
2023-04-15T03:35:35.470Z,97262.38
2023-04-15T03:36:38.311Z,97263.59
2023-04-15T03:37:40.157Z,97264.16
2023-04-15T03:38:42.941Z,97261.81
2023-04-15T03:39:44.778Z,97265.53
2023-04-15T03:40:48.233Z,97260.75
2023-04-15T03:41:50.009Z,97267.81
2023-04-15T03:42:52.801Z,97275.75
2023-04-15T03:43:54.737Z,97273.31
2023-04-15T03:44:57.577Z,97278.59
2023-04-15T03:46:01.756Z,97274.38
2023-04-15T03:47:06.121Z,97279.72
2023-04-15T03:48:17.060Z,97280.66
2023-04-15T03:49:22.973Z,97279.97
2023-04-15T03:50:26.152Z,97286.94
2023-04-15T03:51:28.331Z,97284.47
2023-04-15T03:52:31.376Z,97295.00
2023-04-15T03:53:33.262Z,97285.44
2023-04-15T03:54:36.190Z,97296.63
2023-04-15T03:55:38.066Z,97293.47
2023-04-15T03:56:40.841Z,97299.19
2023-04-15T03:57:42.612Z,97298.63
2023-04-15T03:58:45.374Z,97289.22
2023-04-15T03:59:47.527Z,97296.16
2023-04-15T04:00:50.488Z,97301.19
2023-04-15T04:01:52.355Z,97302.31
2023-04-15T04:02:56.995Z,97297.38
2023-04-15T04:03:58.949Z,97293.97
2023-04-15T04:05:01.778Z,97293.16
2023-04-15T04:06:04.341Z,97300.38
2023-04-15T04:07:07.148Z,97297.91
2023-04-15T04:08:08.920Z,97295.59
2023-04-15T04:09:12.193Z,97292.31
2023-04-15T04:10:13.988Z,97293.97
2023-04-15T04:11:17.218Z,97298.47
2023-04-15T04:12:19.059Z,97296.00
2023-04-15T04:13:21.823Z,97306.50
2023-04-15T04:14:29.276Z,97301.59
2023-04-15T04:15:32.230Z,97296.13
2023-04-15T04:16:35.205Z,97304.59
2023-04-15T04:17:37.265Z,97306.25
2023-04-15T04:18:41.478Z,97314.97
2023-04-15T04:19:43.310Z,97309.91
2023-04-15T04:20:46.117Z,97310.72
2023-04-15T04:21:48.066Z,97311.41
2023-04-15T04:22:51.073Z,97311.41
2023-04-15T04:23:52.839Z,97314.97
2023-04-15T04:24:55.709Z,97314.97
2023-04-15T04:25:57.678Z,97316.59
2023-04-15T04:27:00.906Z,97321.78
2023-04-15T04:28:03.175Z,97326.66
2023-04-15T04:29:06.428Z,97322.88
2023-04-15T04:30:09.087Z,97326.84
2023-04-15T04:31:12.147Z,97330.66
2023-04-15T04:32:14.427Z,97325.94
2023-04-15T04:33:17.340Z,97327.97
2023-04-15T04:34:21.081Z,97336.00
2023-04-15T04:35:23.857Z,97336.44
2023-04-15T04:36:26.572Z,97342.03
2023-04-15T04:37:30.080Z,97334.81
2023-04-15T04:38:31.855Z,97329.22
2023-04-15T04:39:34.596Z,97335.63
2023-04-15T04:40:36.777Z,97328.25
2023-04-15T04:41:39.531Z,97337.56
2023-04-15T04:42:41.527Z,97332.06
2023-04-15T04:43:44.771Z,97334.41
2023-04-15T04:44:47.162Z,97329.75
2023-04-15T04:45:49.935Z,97331.00
2023-04-15T04:46:51.912Z,97332.34
2023-04-15T04:47:54.790Z,97332.63
2023-04-15T04:48:56.596Z,97324.44
2023-04-15T04:50:00.782Z,97327.28
2023-04-15T04:51:03.610Z,97330.13
2023-04-15T04:52:05.745Z,97332.31
2023-04-15T04:53:09.059Z,97319.88
2023-04-15T04:54:10.855Z,97326.41
2023-04-15T04:55:13.620Z,97326.78
2023-04-15T04:56:15.580Z,97328.16
2023-04-15T04:57:18.339Z,97328.84
2023-04-15T04:58:20.194Z,97334.44
2023-04-15T04:59:23.130Z,97327.16
2023-04-15T05:00:25.312Z,97334.53
2023-04-15T05:01:28.505Z,97332.31
2023-04-15T05:02:30.912Z,97326.69
2023-04-15T05:03:34.038Z,97326.44
2023-04-15T05:04:36.945Z,97330.22
2023-04-15T05:05:41.569Z,97332.41
2023-04-15T05:06:43.375Z,97330.03
2023-04-15T05:07:46.181Z,97323.44
2023-04-15T05:08:48.357Z,97324.81
2023-04-15T05:09:51.126Z,97327.91
2023-04-15T05:10:53.258Z,97329.25
2023-04-15T05:11:56.668Z,97328.16
2023-04-15T05:12:59.451Z,97324.44
2023-04-15T05:14:02.605Z,97331.00
2023-04-15T05:15:07.044Z,97331.53
2023-04-15T05:16:09.450Z,97332.03
2023-04-15T05:17:12.492Z,97328.19
2023-04-15T05:18:14.607Z,97330.34
2023-04-15T05:19:17.377Z,97331.69
2023-04-15T05:20:19.147Z,97328.94
2023-04-15T05:21:23.483Z,97332.72
2023-04-15T05:22:25.337Z,97333.44
2023-04-15T05:23:28.562Z,97331.19
2023-04-15T05:24:30.566Z,97335.13
2023-04-15T05:25:33.314Z,97330.44
2023-04-15T05:26:35.214Z,97344.63
2023-04-15T05:27:38.224Z,97333.63
2023-04-15T05:28:41.299Z,97334.81
2023-04-15T05:29:44.119Z,97331.34
2023-04-15T05:30:46.400Z,97327.22
2023-04-15T05:31:49.325Z,97334.25
2023-04-15T05:32:51.240Z,97338.56
2023-04-15T05:33:54.134Z,97337.78
2023-04-15T05:34:56.936Z,97341.44
2023-04-15T05:35:58.776Z,97335.63
2023-04-15T05:37:02.931Z,97329.78
2023-04-15T05:38:04.735Z,97330.81
2023-04-15T05:39:07.517Z,97332.81
2023-04-15T05:40:11.422Z,97328.78
2023-04-15T05:41:17.074Z,97337.59
2023-04-15T05:42:20.316Z,97331.63
2023-04-15T05:43:23.173Z,97334.41
2023-04-15T05:44:24.964Z,97337.88
2023-04-15T05:45:27.771Z,97340.50
2023-04-15T05:46:29.716Z,97338.94
2023-04-15T05:47:32.722Z,97347.28
2023-04-15T05:48:34.556Z,97345.38
2023-04-15T05:49:37.837Z,97344.25
2023-04-15T05:50:41.148Z,97344.28
2023-04-15T05:51:43.922Z,97341.44
2023-04-15T05:52:47.198Z,97345.50
2023-04-15T05:53:49.957Z,97343.06
2023-04-15T05:54:51.817Z,97343.22
2023-04-15T05:55:55.469Z,97350.59
2023-04-15T05:56:57.688Z,97351.88
2023-04-15T05:58:00.447Z,97348.59
2023-04-15T05:59:02.411Z,97353.31
2023-04-15T06:00:06.497Z,97358.22
2023-04-15T06:01:14.236Z,97350.22
2023-04-15T06:02:17.578Z,97344.66
2023-04-15T06:03:19.678Z,97351.03
2023-04-15T06:04:22.870Z,97351.16
2023-04-15T06:05:25.869Z,97353.72
2023-04-15T06:06:27.821Z,97351.09
2023-04-15T06:07:30.609Z,97357.81
2023-04-15T06:08:33.755Z,97358.28
2023-04-15T06:09:36.549Z,97363.16
2023-04-15T06:10:38.408Z,97363.81
2023-04-15T06:11:42.046Z,97365.59
2023-04-15T06:12:43.840Z,97366.41
2023-04-15T06:13:46.574Z,97369.84
2023-04-15T06:14:48.505Z,97371.97
2023-04-15T06:15:51.284Z,97368.66
2023-04-15T06:16:53.135Z,97363.56
2023-04-15T06:17:56.710Z,97363.16
2023-04-15T06:18:58.495Z,97362.25
2023-04-15T06:20:01.389Z,97374.94
2023-04-15T06:21:03.716Z,97364.44
2023-04-15T06:22:07.268Z,97363.53
2023-04-15T06:23:09.088Z,97365.94
2023-04-15T06:24:13.335Z,97370.94
2023-04-15T06:25:15.574Z,97366.63
2023-04-15T06:26:18.320Z,97369.19
2023-04-15T06:27:20.806Z,97362.88
2023-04-15T06:28:23.607Z,97364.31
2023-04-15T06:29:25.407Z,97368.22
2023-04-15T06:30:28.583Z,97361.66
2023-04-15T06:31:31.584Z,97369.97
2023-04-15T06:32:34.693Z,97366.78
2023-04-15T06:33:36.949Z,97368.88
2023-04-15T06:34:39.711Z,97365.72
2023-04-15T06:35:41.506Z,97375.06
2023-04-15T06:36:44.351Z,97375.69
2023-04-15T06:37:47.340Z,97371.28
2023-04-15T06:38:49.133Z,97375.19
2023-04-15T06:39:53.285Z,97383.13
2023-04-15T06:40:55.092Z,97380.69
2023-04-15T06:41:58.159Z,97382.69
2023-04-15T06:43:01.044Z,97380.06
2023-04-15T06:44:03.078Z,97384.03
2023-04-15T06:45:06.912Z,97386.00
2023-04-15T06:46:08.835Z,97381.56
2023-04-15T06:47:13.047Z,97384.03
2023-04-15T06:48:15.866Z,97381.41
2023-04-15T06:49:17.843Z,97386.28
2023-04-15T06:50:20.625Z,97385.50
2023-04-15T06:51:25.591Z,97376.19
2023-04-15T06:52:29.522Z,97385.94
2023-04-15T06:53:31.681Z,97389.72
2023-04-15T06:54:34.438Z,97391.88
2023-04-15T06:55:37.625Z,97387.75
2023-04-15T06:56:40.444Z,97400.34
2023-04-15T06:57:42.259Z,97395.53
2023-04-15T06:58:46.178Z,97404.84
2023-04-15T06:59:47.994Z,97400.84
2023-04-15T07:00:51.124Z,97400.03
2023-04-15T07:01:53.120Z,97403.28
2023-04-15T07:02:56.515Z,97396.41
2023-04-15T07:03:58.405Z,97400.66
2023-04-15T07:05:01.670Z,97407.94
2023-04-15T07:06:06.444Z,97416.28
2023-04-15T07:07:09.432Z,97412.13
2023-04-15T07:08:12.223Z,97411.69
2023-04-15T07:09:15.348Z,97406.44
2023-04-15T07:10:17.279Z,97415.38
2023-04-15T07:11:22.132Z,97404.41
2023-04-15T07:12:24.229Z,97413.09
2023-04-15T07:13:27.040Z,97415.25
2023-04-15T07:14:29.539Z,97405.59
2023-04-15T07:15:32.354Z,97408.13
2023-04-15T07:16:34.198Z,97411.00
2023-04-15T07:17:37.334Z,97410.22
2023-04-15T07:18:39.287Z,97412.72
2023-04-15T07:19:42.130Z,97409.59
2023-04-15T07:20:44.914Z,97412.31
2023-04-15T07:21:47.161Z,97415.19
2023-04-15T07:22:49.922Z,97414.25
2023-04-15T07:23:52.946Z,97414.66
2023-04-15T07:24:55.773Z,97413.25
2023-04-15T07:25:57.611Z,97418.69
2023-04-15T07:27:02.145Z,97418.69
2023-04-15T07:28:04.236Z,97416.31
2023-04-15T07:29:07.166Z,97418.34
2023-04-15T07:30:10.653Z,97415.34
2023-04-15T07:31:13.706Z,97423.00
2023-04-15T07:32:15.600Z,97424.38
2023-04-15T07:33:18.608Z,97418.88
2023-04-15T07:34:20.812Z,97420.84
2023-04-15T07:35:23.643Z,97422.84
2023-04-15T07:36:25.501Z,97430.16
2023-04-15T07:37:28.366Z,97425.56
2023-04-15T07:38:30.169Z,97422.41
2023-04-15T07:39:32.991Z,97419.69
2023-04-15T07:40:34.875Z,97415.72
2023-04-15T07:41:38.098Z,97408.69
2023-04-15T07:42:42.297Z,97405.25
2023-04-15T07:43:44.800Z,97406.47
2023-04-15T07:44:47.552Z,97412.31
2023-04-15T07:45:49.513Z,97410.25
2023-04-15T07:46:52.467Z,97411.84
2023-04-15T07:47:56.084Z,97416.09
2023-04-15T07:48:57.986Z,97411.28
2023-04-15T07:50:00.803Z,97415.75
2023-04-15T07:51:03.534Z,97417.16
2023-04-15T07:52:06.593Z,97419.19
2023-04-15T07:53:09.447Z,97418.38
2023-04-15T07:54:11.227Z,97423.81
2023-04-15T07:55:14.029Z,97422.25
2023-04-15T07:56:16.252Z,97420.06
2023-04-15T07:57:19.132Z,97422.34
2023-04-15T07:58:23.009Z,97426.84
2023-04-15T07:59:27.599Z,97423.06
2023-04-15T08:00:29.431Z,97420.66
2023-04-15T08:01:33.236Z,97424.09
2023-04-15T08:02:36.408Z,97421.53
2023-04-15T08:03:41.253Z,97421.00
2023-04-15T08:04:43.393Z,97411.72
2023-04-15T08:05:47.326Z,97422.28
2023-04-15T08:06:50.519Z,97418.63
2023-04-15T08:07:53.317Z,97425.13
2023-04-15T08:08:55.520Z,97427.75
2023-04-15T08:09:58.285Z,97418.22
2023-04-15T08:11:00.180Z,97423.09
2023-04-15T08:12:03.364Z,97426.53
2023-04-15T08:13:06.655Z,97429.56
2023-04-15T08:14:09.844Z,97426.94
2023-04-15T08:15:13.105Z,97434.03
2023-04-15T08:16:18.947Z,97421.66
2023-04-15T08:17:22.062Z,97429.78
2023-04-15T08:18:23.952Z,97430.19
2023-04-15T08:19:26.699Z,97426.75
2023-04-15T08:20:28.642Z,97423.69
2023-04-15T08:21:31.766Z,97424.91
2023-04-15T08:22:33.648Z,97424.88
2023-04-15T08:23:36.513Z,97429.94
2023-04-15T08:24:39.160Z,97438.06
2023-04-15T08:25:42.113Z,97423.47
2023-04-15T08:26:44.365Z,97430.34
2023-04-15T08:27:47.239Z,97423.25
2023-04-15T08:28:49.543Z,97427.13
2023-04-15T08:29:53.897Z,97422.25
2023-04-15T08:30:56.030Z,97425.69
2023-04-15T08:31:58.844Z,97426.31
2023-04-15T08:33:01.172Z,97425.72
2023-04-15T08:34:03.980Z,97421.84
2023-04-15T08:35:06.367Z,97427.56
2023-04-15T08:36:09.620Z,97431.59
2023-04-15T08:37:12.687Z,97436.69
2023-04-15T08:38:15.677Z,97439.34
2023-04-15T08:39:17.928Z,97430.59
2023-04-15T08:40:21.060Z,97437.28
2023-04-15T08:41:23.784Z,97432.44
2023-04-15T08:42:32.401Z,97427.97
2023-04-15T08:43:35.544Z,97431.63
2023-04-15T08:44:38.369Z,97434.25
2023-04-15T08:45:42.614Z,97427.56
2023-04-15T08:46:45.479Z,97432.81
2023-04-15T08:47:48.938Z,97434.47
2023-04-15T08:48:52.519Z,97427.75
2023-04-15T08:49:55.594Z,97426.16
2023-04-15T08:50:59.047Z,97433.66
2023-04-15T08:52:01.480Z,97436.09
2023-04-15T08:53:04.721Z,97439.13
2023-04-15T08:54:08.778Z,97440.72
2023-04-15T08:55:12.340Z,97431.41
2023-04-15T08:56:16.464Z,97446.22
2023-04-15T08:57:18.713Z,97441.94
2023-04-15T08:58:21.816Z,97447.63
2023-04-15T08:59:24.158Z,97438.50
2023-04-15T09:00:27.599Z,97439.69
2023-04-15T09:01:32.198Z,97446.38
2023-04-15T09:02:35.088Z,97440.50
2023-04-15T09:03:37.162Z,97445.97
2023-04-15T09:04:40.603Z,97446.16
2023-04-15T09:05:42.475Z,97443.28
2023-04-15T09:06:45.341Z,97444.06
2023-04-15T09:07:47.412Z,97439.19
2023-04-15T09:08:50.388Z,97441.63
2023-04-15T09:09:52.364Z,97443.63
2023-04-15T09:10:55.319Z,97434.28
2023-04-15T09:11:57.118Z,97440.16
2023-04-15T09:12:59.927Z,97434.66
2023-04-15T09:14:01.833Z,97444.59
2023-04-15T09:15:05.213Z,97441.16
2023-04-15T09:16:08.450Z,97438.28
2023-04-15T09:17:11.809Z,97436.25
2023-04-15T09:18:14.649Z,97439.66
2023-04-15T09:19:22.034Z,97440.63
2023-04-15T09:20:24.964Z,97437.53
2023-04-15T09:21:27.698Z,97441.38
2023-04-15T09:22:33.490Z,97436.84
2023-04-15T09:23:35.693Z,97437.47
2023-04-15T09:24:39.717Z,97442.50
2023-04-15T09:25:42.548Z,97437.69
2023-04-15T09:26:45.649Z,97445.38
2023-04-15T09:27:48.579Z,97436.09
2023-04-15T09:28:51.319Z,97440.34
2023-04-15T09:29:54.124Z,97439.56
2023-04-15T09:30:57.888Z,97434.16
2023-04-15T09:32:11.678Z,97433.38
2023-04-15T09:33:15.867Z,97438.28
2023-04-15T09:34:18.779Z,97439.91
2023-04-15T09:35:21.506Z,97442.19
2023-04-15T09:36:25.150Z,97440.41
2023-04-15T09:37:35.631Z,97446.13
2023-04-15T09:38:56.024Z,97449.44
2023-04-15T09:39:57.839Z,97442.38
2023-04-15T09:41:00.989Z,97435.25
2023-04-15T09:42:07.198Z,97439.34
2023-04-15T09:43:12.837Z,97441.78
2023-04-15T09:44:24.282Z,97433.63
2023-04-15T09:45:29.572Z,97434.22
2023-04-15T09:46:50.700Z,97439.50
2023-04-15T09:47:54.114Z,97429.53
2023-04-15T09:49:08.762Z,97434.34
2023-04-15T09:50:11.580Z,97438.06
2023-04-15T09:51:13.365Z,97430.66
2023-04-15T09:52:16.125Z,97433.84
2023-04-15T09:53:19.544Z,97438.41
2023-04-15T09:54:22.952Z,97439.56
2023-04-15T09:55:24.933Z,97441.50
2023-04-15T09:56:33.606Z,97431.00
2023-04-15T09:57:36.338Z,97431.34
2023-04-15T09:58:39.365Z,97433.69
2023-04-15T09:59:41.385Z,97425.63
2023-04-15T10:00:44.629Z,97431.06
2023-04-15T10:01:47.082Z,97431.09
2023-04-15T10:02:50.481Z,97430.38
2023-04-15T10:03:55.909Z,97430.28
2023-04-15T10:04:59.042Z,97429.72
2023-04-15T10:06:02.088Z,97428.19
2023-04-15T10:07:05.524Z,97438.25
2023-04-15T10:08:08.758Z,97435.34
2023-04-15T10:09:10.843Z,97434.44
2023-04-15T10:10:14.059Z,97434.31
2023-04-15T10:11:17.516Z,97428.75
2023-04-15T10:12:20.765Z,97436.25
2023-04-15T10:13:26.098Z,97432.97
2023-04-15T10:14:31.569Z,97429.78
2023-04-15T10:15:35.298Z,97428.88
2023-04-15T10:16:39.644Z,97435.34
2023-04-15T10:17:44.879Z,97440.03
2023-04-15T10:18:49.261Z,97432.78
2023-04-15T10:19:55.061Z,97421.69
2023-04-15T10:20:58.233Z,97433.88
2023-04-15T10:22:00.481Z,97429.69
2023-04-15T10:23:03.503Z,97435.31
2023-04-15T10:24:06.214Z,97434.38
2023-04-15T10:25:10.503Z,97435.53
2023-04-15T10:26:14.727Z,97438.00
2023-04-15T10:27:18.828Z,97427.91
2023-04-15T10:28:22.725Z,97443.81
2023-04-15T10:29:25.918Z,97444.34
2023-04-15T10:30:29.058Z,97439.44
2023-04-15T10:31:31.245Z,97439.41
2023-04-15T10:32:34.242Z,97438.06
2023-04-15T10:33:36.625Z,97437.56
2023-04-15T10:34:39.658Z,97435.66
2023-04-15T10:35:44.005Z,97442.41
2023-04-15T10:36:47.058Z,97435.97
2023-04-15T10:37:49.891Z,97436.97
2023-04-15T10:38:51.672Z,97436.63
2023-04-15T10:39:54.514Z,97433.69
2023-04-15T10:41:13.161Z,97438.97
2023-04-15T10:42:17.376Z,97432.38
2023-04-15T10:43:26.380Z,97444.91
2023-04-15T10:44:29.175Z,97436.63
2023-04-15T10:45:33.443Z,97437.75
2023-04-15T10:46:38.211Z,97447.41
2023-04-15T10:47:40.124Z,97441.44
2023-04-15T10:48:48.809Z,97440.78
2023-04-15T10:49:53.594Z,97443.44
2023-04-15T10:51:00.961Z,97442.06
2023-04-15T10:52:04.243Z,97437.63
2023-04-15T10:53:07.044Z,97443.13
2023-04-15T10:54:10.464Z,97442.09
2023-04-15T10:55:15.679Z,97442.09
2023-04-15T10:56:17.494Z,97446.00
2023-04-15T10:57:24.207Z,97440.50
2023-04-15T10:58:27.313Z,97440.34
2023-04-15T10:59:29.448Z,97440.97
2023-04-15T11:00:35.225Z,97438.59
2023-04-15T11:01:53.132Z,97445.31
2023-04-15T11:02:57.869Z,97449.38
2023-04-15T11:04:00.175Z,97450.41
2023-04-15T11:05:03.816Z,97439.84
2023-04-15T11:06:08.469Z,97428.69
2023-04-15T11:07:10.970Z,97431.91
2023-04-15T11:08:15.199Z,97432.50
2023-04-15T11:09:32.969Z,97437.97
2023-04-15T11:10:54.826Z,97439.63
2023-04-15T11:12:08.392Z,97439.78
2023-04-15T11:13:16.732Z,97442.00
2023-04-15T11:14:19.521Z,97439.19
2023-04-15T11:15:29.751Z,97435.28
2023-04-15T11:16:32.669Z,97437.91
2023-04-15T11:17:34.516Z,97446.00
2023-04-15T11:18:38.003Z,97438.25
2023-04-15T11:19:40.869Z,97436.19
2023-04-15T11:20:45.732Z,97441.66
2023-04-15T11:21:49.913Z,97442.06
2023-04-15T11:23:08.030Z,97442.06
2023-04-15T11:24:27.089Z,97445.56
2023-04-15T11:25:31.051Z,97442.50
2023-04-15T11:26:34.025Z,97442.56
2023-04-15T11:27:35.801Z,97443.00
2023-04-15T11:28:40.074Z,97443.63
2023-04-15T11:29:41.974Z,97446.88
2023-04-15T11:30:45.203Z,97446.47
2023-04-15T11:31:49.582Z,97448.72
2023-04-15T11:32:55.490Z,97443.66
2023-04-15T11:34:00.343Z,97444.72
2023-04-15T11:35:02.548Z,97451.81
2023-04-15T11:36:05.712Z,97440.78
2023-04-15T11:37:09.116Z,97447.25
2023-04-15T11:38:13.631Z,97448.72
2023-04-15T11:39:16.726Z,97449.34
2023-04-15T11:40:23.853Z,97454.00
2023-04-15T11:41:27.307Z,97446.88
2023-04-15T11:42:39.341Z,97446.91
2023-04-15T11:43:49.470Z,97450.59
2023-04-15T11:45:07.416Z,97445.31
2023-04-15T11:46:10.291Z,97452.00
2023-04-15T11:47:23.098Z,97450.34
2023-04-15T11:48:27.359Z,97446.47
2023-04-15T11:49:30.652Z,97448.31
2023-04-15T11:50:33.517Z,97448.31
2023-04-15T11:51:37.180Z,97450.56
2023-04-15T11:52:40.788Z,97460.50
2023-04-15T11:53:45.850Z,97453.13
2023-04-15T11:54:47.980Z,97448.78
2023-04-15T11:55:53.152Z,97449.06
2023-04-15T11:56:56.622Z,97460.09
2023-04-15T11:58:14.477Z,97446.22
2023-04-15T11:59:18.403Z,97453.00
2023-04-15T12:00:20.416Z,97452.59
2023-04-15T12:01:32.261Z,97449.31
2023-04-15T12:02:37.136Z,97448.16
2023-04-15T12:03:41.243Z,97451.09
2023-04-15T12:04:43.641Z,97449.69
2023-04-15T12:06:20.046Z,97452.94
2023-04-15T12:07:21.870Z,97450.66
2023-04-15T12:08:26.202Z,97438.00
2023-04-15T12:09:29.939Z,97443.72
2023-04-15T12:10:32.724Z,97442.72
2023-04-15T12:11:40.917Z,97459.41
2023-04-15T12:12:42.764Z,97451.16
2023-04-15T12:13:46.080Z,97449.50
2023-04-15T12:14:48.868Z,97445.34
2023-04-15T12:15:50.744Z,97451.41
2023-04-15T12:16:54.949Z,97446.09
2023-04-15T12:17:59.899Z,97451.84
2023-04-15T12:19:08.468Z,97449.34
2023-04-15T12:20:11.970Z,97453.31
2023-04-15T12:21:14.088Z,97455.81
2023-04-15T12:22:17.934Z,97452.66
2023-04-15T12:23:20.220Z,97459.13
2023-04-15T12:24:24.378Z,97459.56
2023-04-15T12:25:35.615Z,97460.44
2023-04-15T12:26:38.991Z,97459.56